createdAt,value
2023-11-20T00:01:47.875Z,1005.189
2023-11-20T00:06:47.890Z,1005.159
2023-11-20T00:11:47.864Z,1005.146
2023-11-20T00:16:47.908Z,1005.186
2023-11-20T00:21:47.952Z,1005.192
2023-11-20T00:26:48.118Z,1005.171
2023-11-20T00:31:47.914Z,1005.213
2023-11-20T00:36:48.056Z,1005.272
2023-11-20T00:41:47.848Z,1005.292
2023-11-20T00:46:47.914Z,1005.252
2023-11-20T00:51:47.836Z,1005.234
2023-11-20T00:56:47.857Z,1005.301
2023-11-20T01:01:48.073Z,1005.37
2023-11-20T01:06:48.681Z,1005.372
2023-11-20T01:11:49.662Z,1005.47
2023-11-20T01:16:47.871Z,1005.448
2023-11-20T01:21:47.917Z,1005.435
2023-11-20T01:26:47.852Z,1005.482
2023-11-20T01:31:47.919Z,1005.522
2023-11-20T01:36:48.112Z,1005.577
2023-11-20T01:41:47.866Z,1005.522
2023-11-20T01:46:47.959Z,1005.552
2023-11-20T01:51:48.027Z,1005.572
2023-11-20T01:56:48.291Z,1005.583
2023-11-20T02:01:48.149Z,1005.573
2023-11-20T02:06:48.151Z,1005.596
2023-11-20T02:11:48.341Z,1005.562
2023-11-20T02:16:47.978Z,1005.621
2023-11-20T02:21:48.447Z,1005.652
2023-11-20T02:27:05.163Z,1005.545
2023-11-20T02:31:48.015Z,1005.617
2023-11-20T02:36:47.994Z,1005.663
2023-11-20T02:41:47.970Z,1005.619
2023-11-20T02:46:48.153Z,1005.6
2023-11-20T02:51:47.955Z,1005.57
2023-11-20T02:56:48.188Z,1005.578
2023-11-20T03:01:49.894Z,1005.552
2023-11-20T03:06:47.985Z,1005.453
2023-11-20T03:11:48.086Z,1005.516
2023-11-20T03:16:48.866Z,1005.629
2023-11-20T03:21:48.547Z,1005.632
2023-11-20T03:26:48.008Z,1005.642
2023-11-20T03:31:48.130Z,1005.669
2023-11-20T03:36:48.022Z,1005.659
2023-11-20T03:41:48.089Z,1005.706
2023-11-20T03:46:48.092Z,1005.679
2023-11-20T03:51:48.101Z,1005.655
2023-11-20T03:56:48.076Z,1005.675
2023-11-20T04:01:48.107Z,1005.751
2023-11-20T04:06:48.043Z,1005.793
2023-11-20T04:11:48.125Z,1005.855
2023-11-20T04:16:53.034Z,1005.849
2023-11-20T04:21:48.973Z,1005.908
2023-11-20T04:26:48.714Z,1005.885
2023-11-20T04:31:48.673Z,1005.929
2023-11-20T04:36:48.465Z,1005.887
2023-11-20T04:41:48.377Z,1005.935
2023-11-20T04:46:50.575Z,1005.978
2023-11-20T04:51:49.605Z,1005.953
2023-11-20T04:56:49.198Z,1005.973
2023-11-20T05:01:48.605Z,1005.964
2023-11-20T05:06:48.674Z,1005.979
2023-11-20T05:11:49.974Z,1005.986
2023-11-20T05:16:48.401Z,1005.91
2023-11-20T05:21:48.958Z,1006.017
2023-11-20T05:26:48.235Z,1006.04
2023-11-20T05:31:48.360Z,1006.075
2023-11-20T05:36:48.640Z,1006.084
2023-11-20T05:41:48.636Z,1006.015
2023-11-20T05:46:48.174Z,1005.954
2023-11-20T05:51:48.463Z,1006.07
2023-11-20T05:56:48.257Z,1006.109
2023-11-20T06:01:48.678Z,1006.037
2023-11-20T06:06:48.280Z,1006.1
2023-11-20T06:11:50.461Z,1006.229
2023-11-20T06:16:48.384Z,1006.206
2023-11-20T06:21:53.160Z,1006.262
2023-11-20T06:26:48.663Z,1006.183
2023-11-20T06:31:48.375Z,1006.312
2023-11-20T06:36:48.602Z,1006.391
2023-11-20T06:41:48.546Z,1006.461
2023-11-20T06:46:48.290Z,1006.458
2023-11-20T06:51:49.249Z,1006.531
2023-11-20T06:56:54.683Z,1006.631
2023-11-20T07:01:51.805Z,1006.676
2023-11-20T07:06:50.381Z,1006.739
2023-11-20T07:11:48.572Z,1006.732
2023-11-20T07:16:49.825Z,1006.776
2023-11-20T07:21:48.893Z,1006.81
2023-11-20T07:26:48.244Z,1006.879
2023-11-20T07:31:48.465Z,1006.892
2023-11-20T07:36:48.373Z,1006.862
2023-11-20T07:41:48.243Z,1006.914
2023-11-20T07:46:52.115Z,1006.961
2023-11-20T07:51:48.500Z,1006.99
2023-11-20T07:56:48.744Z,1007.029
2023-11-20T08:01:48.359Z,1007.016
2023-11-20T08:06:49.071Z,1007.085
2023-11-20T08:11:48.761Z,1007.095
2023-11-20T08:16:48.654Z,1007.143
2023-11-20T08:21:48.306Z,1007.1
2023-11-20T08:26:48.714Z,1007.251
2023-11-20T08:31:48.397Z,1007.219
2023-11-20T08:36:48.838Z,1007.209
2023-11-20T08:41:48.282Z,1007.201
2023-11-20T08:46:50.884Z,1007.231
2023-11-20T08:51:55.915Z,1007.273
2023-11-20T08:56:52.560Z,1007.23
2023-11-20T09:01:49.204Z,1007.167
2023-11-20T09:06:48.534Z,1007.143
2023-11-20T09:11:50.991Z,1007.102
2023-11-20T09:16:48.606Z,1007.169
2023-11-20T09:21:48.445Z,1007.068
2023-11-20T09:26:49.993Z,1007.286
2023-11-20T09:31:49.040Z,1007.221
2023-11-20T09:36:48.667Z,1007.234
2023-11-20T09:41:48.869Z,1007.312
2023-11-20T09:46:49.895Z,1007.356
2023-11-20T09:51:50.045Z,1007.393
2023-11-20T09:56:48.426Z,1007.377
2023-11-20T10:01:49.226Z,1007.319
2023-11-20T10:06:48.627Z,1007.317
2023-11-20T10:11:52.517Z,1007.346
2023-11-20T10:16:49.092Z,1007.353
2023-11-20T10:21:51.402Z,1007.34
2023-11-20T10:26:51.324Z,1007.282
2023-11-20T10:31:52.180Z,1007.29
2023-11-20T10:36:58.495Z,1007.351
2023-11-20T10:41:48.507Z,1007.281
2023-11-20T10:46:49.700Z,1007.237
2023-11-20T10:51:52.886Z,1007.164
2023-11-20T10:56:49.254Z,1007.145
2023-11-20T11:01:48.665Z,1007.084
2023-11-20T11:06:50.911Z,1007.159
2023-11-20T11:11:50.684Z,1007.033
2023-11-20T11:16:51.925Z,1007.025
2023-11-20T11:21:57.391Z,1007.044
2023-11-20T11:26:53.931Z,1007.019
2023-11-20T11:31:58.301Z,1006.998
2023-11-20T11:36:55.597Z,1006.925
2023-11-20T11:42:06.047Z,1006.925
2023-11-20T11:46:53.536Z,1006.877
2023-11-20T11:51:49.252Z,1006.814
2023-11-20T11:56:57.809Z,1006.677
2023-11-20T12:01:54.243Z,1006.655
2023-11-20T12:06:48.682Z,1006.692
2023-11-20T12:11:58.046Z,1006.689
2023-11-20T12:16:50.472Z,1006.666
2023-11-20T12:21:50.386Z,1006.648
2023-11-20T12:26:48.767Z,1006.658
2023-11-20T12:31:49.421Z,1006.638
2023-11-20T12:36:48.990Z,1006.686
2023-11-20T12:41:50.447Z,1006.672
2023-11-20T12:46:48.913Z,1006.666
2023-11-20T12:51:48.674Z,1006.659
2023-11-20T12:56:49.949Z,1006.666
2023-11-20T13:01:48.550Z,1006.638
2023-11-20T13:06:48.803Z,1006.626
2023-11-20T13:11:48.692Z,1006.616
2023-11-20T13:16:49.031Z,1006.562
2023-11-20T13:21:50.447Z,1006.575
2023-11-20T13:26:52.912Z,1006.558
2023-11-20T13:31:50.359Z,1006.537
2023-11-20T13:36:48.668Z,1006.509
2023-11-20T13:41:48.953Z,1006.547
2023-11-20T13:46:50.724Z,1006.497
2023-11-20T13:51:48.559Z,1006.527
2023-11-20T13:56:48.627Z,1006.477
2023-11-20T14:01:49.005Z,1006.479
2023-11-20T14:06:48.722Z,1006.481
2023-11-20T14:11:48.657Z,1006.55
2023-11-20T14:16:48.692Z,1006.478
2023-11-20T14:21:48.654Z,1006.44
2023-11-20T14:26:48.638Z,1006.465
2023-11-20T14:31:49.736Z,1006.369
2023-11-20T14:36:48.720Z,1006.293
2023-11-20T14:41:48.713Z,1006.351
2023-11-20T14:46:48.771Z,1006.418
2023-11-20T14:51:48.856Z,1006.403
2023-11-20T14:56:48.706Z,1006.426
2023-11-20T15:01:48.700Z,1006.448
2023-11-20T15:06:48.681Z,1006.44
2023-11-20T15:11:49.992Z,1006.453
2023-11-20T15:16:48.676Z,1006.467
2023-11-20T15:21:50.040Z,1006.504
2023-11-20T15:26:50.288Z,1006.528
2023-11-20T15:31:48.882Z,1006.479
2023-11-20T15:36:48.645Z,1006.504
2023-11-20T15:41:49.252Z,1006.551
2023-11-20T15:46:52.027Z,1006.542
2023-11-20T15:51:48.668Z,1006.595
2023-11-20T15:56:53.376Z,1006.578
2023-11-20T16:01:49.432Z,1006.553
2023-11-20T16:06:48.738Z,1006.59
2023-11-20T16:11:48.962Z,1006.563
2023-11-20T16:16:52.729Z,1006.644
2023-11-20T16:21:49.553Z,1006.656
2023-11-20T16:26:48.998Z,1006.639
2023-11-20T16:31:48.833Z,1006.607
2023-11-20T16:36:49.015Z,1006.607
2023-11-20T16:41:48.720Z,1006.649
2023-11-20T16:46:48.777Z,1006.782
2023-11-20T16:51:48.796Z,1006.846
2023-11-20T16:56:49.354Z,1006.947
2023-11-20T17:01:49.989Z,1006.98
2023-11-20T17:06:48.690Z,1007.024
2023-11-20T17:11:50.573Z,1007.056
2023-11-20T17:16:49.044Z,1007.121
2023-11-20T17:21:48.785Z,1007.21
2023-11-20T17:26:49.028Z,1007.193
2023-11-20T17:31:48.946Z,1007.19
2023-11-20T17:36:49.165Z,1007.238
2023-11-20T17:41:48.684Z,1007.277
2023-11-20T17:46:50.083Z,1007.234
2023-11-20T17:51:49.140Z,1007.232
2023-11-20T17:56:50.710Z,1007.279
2023-11-20T18:01:49.432Z,1007.301
2023-11-20T18:06:51.544Z,1007.363
2023-11-20T18:11:48.761Z,1007.429
2023-11-20T18:16:48.797Z,1007.465
2023-11-20T18:21:53.733Z,1007.519
2023-11-20T18:26:50.063Z,1007.531
2023-11-20T18:31:50.196Z,1007.517
2023-11-20T18:36:48.693Z,1007.474
2023-11-20T18:41:49.605Z,1007.547
2023-11-20T18:46:48.936Z,1007.571
2023-11-20T18:51:48.683Z,1007.619
2023-11-20T18:56:48.741Z,1007.674
2023-11-20T19:01:52.089Z,1007.653
2023-11-20T19:06:48.664Z,1007.752
2023-11-20T19:11:49.418Z,1007.789
2023-11-20T19:16:48.793Z,1007.818
2023-11-20T19:21:48.756Z,1007.792
2023-11-20T19:26:48.746Z,1007.793
2023-11-20T19:31:49.335Z,1007.753
2023-11-20T19:36:48.772Z,1007.809
2023-11-20T19:41:49.616Z,1007.825
2023-11-20T19:46:48.787Z,1007.839
2023-11-20T19:51:48.729Z,1007.865
2023-11-20T19:56:49.193Z,1007.828
2023-11-20T20:01:50.348Z,1007.789
2023-11-20T20:06:49.295Z,1007.8
2023-11-20T20:11:50.196Z,1007.732
2023-11-20T20:16:49.505Z,1007.746
2023-11-20T20:21:49.046Z,1007.804
2023-11-20T20:26:48.744Z,1007.907
2023-11-20T20:31:48.842Z,1007.911
2023-11-20T20:36:48.757Z,1007.972
2023-11-20T20:41:49.051Z,1008.025
2023-11-20T20:46:49.059Z,1008.06
2023-11-20T20:51:49.706Z,1008.114
2023-11-20T20:56:49.285Z,1008.088
2023-11-20T21:01:49.334Z,1008.151
2023-11-20T21:06:48.841Z,1008.267
2023-11-20T21:11:48.878Z,1008.247
2023-11-20T21:16:49.449Z,1008.363
2023-11-20T21:21:49.233Z,1008.422
2023-11-20T21:26:48.930Z,1008.417
2023-11-20T21:31:52.480Z,1008.438
2023-11-20T21:36:49.754Z,1008.395
2023-11-20T21:41:49.337Z,1008.366
2023-11-20T21:46:49.678Z,1008.412
2023-11-20T21:51:48.864Z,1008.427
2023-11-20T21:56:48.912Z,1008.497
2023-11-20T22:01:49.280Z,1008.548
2023-11-20T22:06:48.861Z,1008.674
2023-11-20T22:11:50.018Z,1008.736
2023-11-20T22:16:48.936Z,1008.754
2023-11-20T22:21:49.416Z,1008.783
2023-11-20T22:26:48.924Z,1008.805
2023-11-20T22:31:49.041Z,1008.878
2023-11-20T22:36:48.867Z,1008.878
2023-11-20T22:41:49.183Z,1008.961
2023-11-20T22:46:48.991Z,1008.975
2023-11-20T22:51:48.868Z,1008.953
2023-11-20T22:56:48.944Z,1009.021
2023-11-20T23:01:50.763Z,1009.029
2023-11-20T23:06:48.930Z,1009.072
2023-11-20T23:11:48.921Z,1009.063
2023-11-20T23:16:48.949Z,1009.115
2023-11-20T23:21:48.960Z,1009.181
2023-11-20T23:26:48.889Z,1009.139
2023-11-20T23:31:48.989Z,1009.121
2023-11-20T23:36:49.004Z,1009.145
2023-11-20T23:41:49.831Z,1009.249
2023-11-20T23:46:49.553Z,1009.275
2023-11-20T23:51:48.926Z,1009.3
2023-11-20T23:56:49.260Z,1009.325
